ADDS METAR Data

Data at: 0747 UTC 24 Oct 2017

METAR for:CYFC (Fredericton Intl, NB, CN)
Text:CYFC 240734Z AUTO 17003KT 1 3/4SM BR OVC005 13/13 A3017 RMK SLP220
Temperature: 13.0°C ( 55°F)
Dewpoint: 13.0°C ( 55°F) [RH = 100%]
Pressure (altimeter):30.17 inches Hg (1021.8 mb) [Sea level pressure: 1022.0 mb]
Winds:from the S (170 degrees) at 3 MPH (3 knots; 1.5 m/s)
Visibility: 1.75 sm ( 2.82 km)
Ceiling:500 feet AGL
Clouds: overcast cloud deck at 500 feet AGL
Weather:BR (mist)